Terminal Aerodrome Forecast
Issued by NWS

Home | Current Version | Previous Version | Graphics & Text | Print | Product List | Glossary On
Versions: 1 2 3 4 5 6 7 8 9 10 11 12 13
000
FTUS43 KFGF 161100
TAFBJI
TAF
KBJI 161120Z 1612/1712 07011KT P6SM OVC060
     FM161500 07014G20KT P6SM OVC025
     FM170300 02011KT P6SM BKN035=

USA.gov is the U.S. government's official web portal to all federal, state and local government web resources and services.